Time;durP1;ratioP1;P1;durP2;ratioP2;P2;SDS_P1;SDS_P2;PMS_P1;PMS_P2;Temp;Humidity;BMP_temperature;BMP_pressure;BME280_temperature;BME280_humidity;BME280_pressure;Samples;Min_cycle;Max_cycle;Signal;HPM_P1;HPM_P2
2022/09/26 00:00:29;;;;;;;13.93;4.20;;;;;;;-150.27;100.00;61272.81;5224806;28;20056;-77
2022/09/26 00:03:00;;;;;;;5.57;3.63;;;;;;;-150.27;100.00;61272.81;5224869;28;20037;-77
2022/09/26 00:05:32;;;;;;;4.93;3.13;;;;;;;-150.27;100.00;61272.81;5224553;28;20056;-74
2022/09/26 00:08:05;;;;;;;6.23;3.77;;;;;;;-150.27;100.00;61272.81;5225251;28;20148;-73
2022/09/26 00:10:37;;;;;;;5.03;3.83;;;;;;;-150.27;100.00;61272.81;5210091;28;20136;-77
2022/09/26 00:13:08;;;;;;;7.40;4.17;;;;;;;-150.27;100.00;61272.81;5224239;28;20033;-77
2022/09/26 00:15:39;;;;;;;5.40;4.00;;;;;;;-150.27;100.00;61272.81;5224256;28;20722;-75
2022/09/26 00:18:10;;;;;;;8.80;3.93;;;;;;;-150.27;100.00;61272.81;5223902;28;20136;-77
2022/09/26 00:20:42;;;;;;;7.20;4.13;;;;;;;-150.27;100.00;61272.81;5223596;28;20051;-74
2022/09/26 00:23:14;;;;;;;9.40;4.17;;;;;;;-150.27;100.00;61272.81;5224773;28;20025;-76
2022/09/26 00:25:50;;;;;;;6.00;4.60;;;;;;;-150.27;100.00;61272.81;5225443;28;20033;-74
2022/09/26 00:28:21;;;;;;;5.57;3.67;;;;;;;-150.27;100.00;61272.81;5224747;28;20508;-75
2022/09/26 00:30:53;;;;;;;8.70;3.83;;;;;;;-150.27;100.00;61272.81;5225177;28;20049;-77
2022/09/26 00:33:25;;;;;;;11.60;4.20;;;;;;;-150.27;100.00;61272.81;5224802;28;20037;-77
2022/09/26 00:35:56;;;;;;;9.57;4.00;;;;;;;-150.27;100.00;61272.81;5224207;28;20079;-77
2022/09/26 00:38:28;;;;;;;8.90;5.00;;;;;;;-150.27;100.00;61272.81;5225772;28;20068;-77
2022/09/26 00:40:59;;;;;;;6.93;4.73;;;;;;;-150.27;100.00;61272.81;5224592;28;21474;-75
2022/09/26 00:43:34;;;;;;;6.93;4.43;;;;;;;-150.27;100.00;61272.81;5224565;28;20026;-75
2022/09/26 00:46:20;;;;;;;5.90;3.77;;;;;;;-150.27;100.00;61272.81;5225173;28;20017;-76
2022/09/26 00:49:04;;;;;;;5.83;4.00;;;;;;;-150.27;100.00;61272.81;5224310;28;20042;-77
2022/09/26 00:51:39;;;;;;;7.23;4.50;;;;;;;-150.27;100.00;61272.81;5223327;28;20033;-75
2022/09/26 00:54:14;;;;;;;8.80;4.20;;;;;;;-150.27;100.00;61272.81;5224495;28;20071;-76
2022/09/26 00:56:49;;;;;;;9.60;3.63;;;;;;;-150.27;100.00;61272.81;5224666;28;20034;-76
2022/09/26 00:59:28;;;;;;;7.00;3.93;;;;;;;-150.27;100.00;61272.81;5224776;28;20037;-75
2022/09/26 01:02:00;;;;;;;11.50;3.97;;;;;;;-150.27;100.00;61272.81;5224014;28;20143;-77
2022/09/26 01:04:36;;;;;;;9.53;3.83;;;;;;;-150.27;100.00;61272.81;5224628;28;20448;-75
2022/09/26 01:07:16;;;;;;;7.20;3.87;;;;;;;-150.27;100.00;61272.81;5223396;28;20455;-74
2022/09/26 01:09:47;;;;;;;7.63;4.03;;;;;;;-150.27;100.00;61272.81;5223963;28;20048;-78
2022/09/26 01:12:20;;;;;;;10.03;4.10;;;;;;;-150.27;100.00;61272.81;5224469;28;20030;-76
2022/09/26 01:14:53;;;;;;;5.93;3.60;;;;;;;-150.27;100.00;61272.81;5261751;22;20081;-76
2022/09/26 01:17:25;;;;;;;7.87;3.47;;;;;;;-150.27;100.00;61272.81;5221344;28;20475;-77
2022/09/26 01:20:16;;;;;;;7.40;3.93;;;;;;;-150.27;100.00;61272.81;5219304;28;20033;-77
2022/09/26 01:22:50;;;;;;;7.30;3.47;;;;;;;-150.27;100.00;61272.81;5219313;28;20034;-76
2022/09/26 01:26:07;;;;;;;8.77;3.55;;;;;;;-150.27;100.00;61272.81;5221704;28;20026;-76
2022/09/26 01:28:56;;;;;;;7.00;3.40;;;;;;;-150.27;100.00;61272.81;5225700;28;20034;-76
2022/09/26 01:31:39;;;;;;;5.03;3.23;;;;;;;-150.27;100.00;61272.81;5225423;28;20098;-76
2022/09/26 01:34:15;;;;;;;8.13;3.80;;;;;;;-150.27;100.00;61272.81;5225469;28;20033;-75
2022/09/26 01:37:13;;;;;;;6.97;3.67;;;;;;;-150.27;100.00;61272.81;5224796;28;20067;-75
2022/09/26 01:40:08;;;;;;;7.27;3.53;;;;;;;-150.27;100.00;61272.81;5224236;28;20033;-76
2022/09/26 01:42:42;;;;;;;;;;;;;;;-150.27;100.00;61272.81;5225752;28;20044;-77
2022/09/26 01:45:18;;;;;;;11.37;3.90;;;;;;;-150.27;100.00;61272.81;5225424;28;19917;-77
2022/09/26 01:48:12;;;;;;;8.40;3.50;;;;;;;-150.27;100.00;61272.81;5225566;28;20029;-77
2022/09/26 01:50:58;;;;;;;6.97;3.80;;;;;;;-150.27;100.00;61272.81;5224777;28;20041;-75
2022/09/26 01:53:50;;;;;;;6.10;3.43;;;;;;;-150.27;100.00;61272.81;5223797;28;20299;-76
2022/09/26 01:56:25;;;;;;;8.00;3.10;;;;;;;-150.27;100.00;61272.81;5223771;28;20492;-76
2022/09/26 01:59:03;;;;;;;13.27;3.40;;;;;;;-150.27;100.00;61272.81;5225731;28;20037;-76
2022/09/26 02:01:41;;;;;;;6.87;2.63;;;;;;;-150.27;100.00;61272.81;5225145;28;20075;-76
2022/09/26 02:04:26;;;;;;;7.00;2.50;;;;;;;-150.27;100.00;61272.81;5225116;28;20029;-76
2022/09/26 02:07:04;;;;;;;4.53;2.30;;;;;;;-150.27;100.00;61272.81;5223487;28;20033;-76
2022/09/26 02:09:44;;;;;;;10.10;3.40;;;;;;;-150.27;100.00;61272.81;5224792;28;20030;-76
2022/09/26 02:12:24;;;;;;;4.80;2.33;;;;;;;-150.27;100.00;61272.81;5223670;28;20047;-74
2022/09/26 02:14:59;;;;;;;5.63;3.13;;;;;;;-150.27;100.00;61272.81;5224774;28;20049;-76
2022/09/26 02:17:50;;;;;;;4.27;2.50;;;;;;;-150.27;100.00;61272.81;5224962;28;20048;-77
2022/09/26 02:20:28;;;;;;;10.03;3.33;;;;;;;-150.27;100.00;61272.81;5223536;28;20037;-77
2022/09/26 02:23:02;;;;;;;7.97;2.87;;;;;;;-150.27;100.00;61272.81;5225179;28;20188;-76
2022/09/26 02:25:36;;;;;;;6.78;3.20;;;;;;;-150.27;100.00;61272.81;5223303;28;20045;-77
2022/09/26 02:28:07;;;;;;;6.05;2.63;;;;;;;-150.27;100.00;61272.81;5224712;28;20042;-77
2022/09/26 02:30:43;;;;;;;6.10;3.10;;;;;;;-150.27;100.00;61272.81;5232045;28;20059;-76
2022/09/26 02:33:15;;;;;;;5.70;2.73;;;;;;;-150.27;100.00;61272.81;5235818;28;20040;-77
2022/09/26 02:35:56;;;;;;;7.33;3.17;;;;;;;-150.27;100.00;61272.81;5234490;28;20029;-75
2022/09/26 02:38:30;;;;;;;6.90;3.00;;;;;;;-150.27;100.00;61272.81;5233894;28;20017;-77
2022/09/26 02:41:29;;;;;;;7.47;2.90;;;;;;;-150.27;100.00;61272.81;5234283;28;20079;-77
2022/09/26 02:44:09;;;;;;;6.53;2.97;;;;;;;-150.27;100.00;61272.81;5235422;28;20411;-76
2022/09/26 02:47:01;;;;;;;6.70;2.33;;;;;;;-150.27;100.00;61272.81;5233820;28;20040;-77
2022/09/26 02:49:49;;;;;;;8.33;2.47;;;;;;;-150.27;100.00;61272.81;5233592;28;20468;-77
2022/09/26 02:52:54;;;;;;;9.20;2.80;;;;;;;-150.27;100.00;61272.81;5234429;28;20088;-77
2022/09/26 02:55:31;;;;;;;6.07;2.60;;;;;;;-150.27;100.00;61272.81;5234662;28;20052;-77
2022/09/26 02:58:10;;;;;;;9.53;4.03;;;;;;;-150.27;100.00;61272.81;5234581;28;20418;-74
2022/09/26 03:01:04;;;;;;;6.43;2.67;;;;;;;-150.27;100.00;61272.81;5235173;28;20025;-77
2022/09/26 03:03:51;;;;;;;5.63;2.30;;;;;;;-150.27;100.00;61272.81;5233419;28;20091;-77
2022/09/26 03:06:28;;;;;;;6.53;2.30;;;;;;;-150.27;100.00;61272.81;5233820;28;20542;-78
2022/09/26 03:09:00;;;;;;;5.50;2.47;;;;;;;-150.27;100.00;61272.81;5235101;28;20025;-77
2022/09/26 03:11:34;;;;;;;6.03;2.57;;;;;;;-150.27;100.00;61272.81;5234241;28;20387;-77
2022/09/26 03:14:07;;;;;;;3.83;2.30;;;;;;;-150.27;100.00;61272.81;5234792;28;20045;-77
2022/09/26 03:16:42;;;;;;;9.83;2.90;;;;;;;-150.27;100.00;61272.81;5234833;28;20478;-74
2022/09/26 03:19:25;;;;;;;8.60;3.27;;;;;;;-150.27;100.00;61272.81;5235126;28;20033;-77
2022/09/26 03:21:58;;;;;;;5.97;2.43;;;;;;;-150.27;100.00;61272.81;5233665;28;20030;-77
2022/09/26 03:24:31;;;;;;;7.73;2.37;;;;;;;-150.27;100.00;61272.81;5234624;28;20029;-77
2022/09/26 03:27:04;;;;;;;12.40;2.93;;;;;;;-150.27;100.00;61272.81;5230408;28;20025;-77
2022/09/26 03:29:36;;;;;;;7.93;2.67;;;;;;;-150.27;100.00;61272.81;5225048;28;20042;-77
2022/09/26 03:32:08;;;;;;;6.73;2.40;;;;;;;-150.27;100.00;61272.81;5232432;28;20403;-77
2022/09/26 03:34:40;;;;;;;7.77;2.80;;;;;;;-150.27;100.00;61272.81;5232396;28;20014;-77
2022/09/26 03:37:12;;;;;;;7.67;2.90;;;;;;;-150.27;100.00;61272.81;5233848;28;20112;-77
2022/09/26 03:39:43;;;;;;;8.93;2.33;;;;;;;-150.27;100.00;61272.81;5232450;28;20101;-76
2022/09/26 03:42:15;;;;;;;5.30;2.10;;;;;;;-150.27;100.00;61272.81;5234004;28;20029;-77
2022/09/26 03:44:47;;;;;;;8.60;2.63;;;;;;;-150.27;100.00;61272.81;5233802;28;20400;-77
2022/09/26 03:47:18;;;;;;;5.63;2.40;;;;;;;-150.27;100.00;61272.81;5233502;28;20206;-78
2022/09/26 03:49:49;;;;;;;8.27;2.30;;;;;;;-150.27;100.00;61272.81;5233596;28;20338;-76
2022/09/26 03:52:21;;;;;;;6.03;2.33;;;;;;;-150.27;100.00;61272.81;5232752;28;20021;-77
2022/09/26 03:54:52;;;;;;;9.50;2.40;;;;;;;-150.27;100.00;61272.81;5234278;28;20112;-77
2022/09/26 03:57:23;;;;;;;5.63;2.30;;;;;;;-150.27;100.00;61272.81;5231583;28;20052;-77
2022/09/26 03:59:55;;;;;;;5.73;2.20;;;;;;;-150.27;100.00;61272.81;5233746;28;20026;-76
2022/09/26 04:02:26;;;;;;;7.93;2.13;;;;;;;-150.27;100.00;61272.81;5232050;28;20025;-77
2022/09/26 04:04:57;;;;;;;12.40;2.80;;;;;;;-150.27;100.00;61272.81;5232858;28;20377;-77
2022/09/26 04:07:29;;;;;;;6.27;2.10;;;;;;;-150.27;100.00;61272.81;5232816;28;20037;-76
2022/09/26 04:10:00;;;;;;;5.63;1.93;;;;;;;-150.27;100.00;61272.81;5232397;28;20044;-76
2022/09/26 04:12:32;;;;;;;11.67;3.13;;;;;;;-150.27;100.00;61272.81;5231674;28;20488;-76
2022/09/26 04:15:07;;;;;;;4.93;2.00;;;;;;;-150.27;100.00;61272.81;5233739;28;20515;-76
2022/09/26 04:17:38;;;;;;;7.93;2.37;;;;;;;-150.27;100.00;61272.81;5232343;28;20080;-77
2022/09/26 04:20:10;;;;;;;6.17;2.10;;;;;;;-150.27;100.00;61272.81;5233013;28;20030;-77
2022/09/26 04:22:42;;;;;;;9.30;2.90;;;;;;;-150.27;100.00;61272.81;5233279;28;20473;-77
2022/09/26 04:25:13;;;;;;;5.47;1.80;;;;;;;-150.27;100.00;61272.81;5231836;28;20021;-77
2022/09/26 04:27:44;;;;;;;5.97;2.13;;;;;;;-150.27;100.00;61272.81;5225318;28;20044;-76
2022/09/26 04:30:16;;;;;;;8.23;3.30;;;;;;;-150.27;100.00;61272.81;5227534;28;20494;-74
2022/09/26 04:32:47;;;;;;;5.90;2.20;;;;;;;-150.27;100.00;61272.81;5232413;28;20029;-75
2022/09/26 04:35:18;;;;;;;11.93;2.63;;;;;;;-150.27;100.00;61272.81;5231040;28;20091;-78
2022/09/26 04:37:50;;;;;;;6.80;2.33;;;;;;;-150.27;100.00;61272.81;5233825;28;20061;-77
2022/09/26 04:40:21;;;;;;;11.07;2.73;;;;;;;-150.27;100.00;61272.81;5231209;28;20032;-77
2022/09/26 04:42:52;;;;;;;5.97;2.20;;;;;;;-150.27;100.00;61272.81;5233278;28;20402;-76
2022/09/26 04:45:24;;;;;;;9.67;2.20;;;;;;;-150.27;100.00;61272.81;5233063;28;20472;-76
2022/09/26 04:47:55;;;;;;;5.03;2.00;;;;;;;-150.27;100.00;61272.81;5233215;28;20430;-77
2022/09/26 04:50:27;;;;;;;6.03;2.07;;;;;;;-150.27;100.00;61272.81;5230760;28;20369;-77
2022/09/26 04:53:03;;;;;;;6.53;1.97;;;;;;;-150.27;100.00;61272.81;5233593;28;20480;-76
2022/09/26 04:55:34;;;;;;;8.60;2.70;;;;;;;-150.27;100.00;61272.81;5232962;28;20022;-76
2022/09/26 04:58:05;;;;;;;7.57;2.20;;;;;;;-150.27;100.00;61272.81;5232871;28;20033;-77
2022/09/26 05:00:46;;;;;;;6.93;1.93;;;;;;;-150.27;100.00;61272.81;5234713;28;20017;-77
2022/09/26 05:03:18;;;;;;;8.93;2.17;;;;;;;-150.27;100.00;61272.81;5237074;28;20022;-77
2022/09/26 05:05:49;;;;;;;5.90;2.53;;;;;;;-150.27;100.00;61272.81;5236251;28;20433;-76
2022/09/26 05:08:21;;;;;;;5.80;2.57;;;;;;;-150.27;100.00;61272.81;5237011;28;20076;-76
2022/09/26 05:10:54;;;;;;;13.17;3.17;;;;;;;-150.27;100.00;61272.81;5237192;28;20433;-77
2022/09/26 05:13:26;;;;;;;7.17;2.60;;;;;;;-150.27;100.00;61272.81;5235293;28;20072;-77
2022/09/26 05:15:58;;;;;;;8.50;2.43;;;;;;;-150.27;100.00;61272.81;5237447;28;20060;-77
2022/09/26 05:18:30;;;;;;;6.30;3.30;;;;;;;-150.27;100.00;61272.81;5236659;28;20407;-77
2022/09/26 05:21:02;;;;;;;8.70;2.80;;;;;;;-150.27;100.00;61272.81;5236358;28;20029;-77
2022/09/26 05:26:47;;;;;;;12.67;3.77;;;;;;;-150.27;100.00;61272.81;5236816;28;20037;-76
2022/09/26 05:29:19;;;;;;;7.73;3.10;;;;;;;-150.27;100.00;61272.81;5222852;28;20374;-75
2022/09/26 05:31:53;;;;;;;7.20;2.77;;;;;;;-150.27;100.00;61272.81;5228071;28;20254;-75
2022/09/26 05:34:25;;;;;;;7.00;2.90;;;;;;;-150.27;100.00;61272.81;5227524;28;20492;-73
2022/09/26 05:36:56;;;;;;;7.40;3.73;;;;;;;-150.27;100.00;61272.81;5226402;28;20091;-76
2022/09/26 05:42:17;;;;;;;7.80;3.80;;;;;;;-150.27;100.00;61272.81;5226918;28;20041;-76
2022/09/26 05:44:49;;;;;;;8.07;3.30;;;;;;;-150.27;100.00;61272.81;5227110;28;20369;-76
2022/09/26 05:47:20;;;;;;;9.47;3.97;;;;;;;-150.27;100.00;61272.81;5228038;28;20120;-76
2022/09/26 05:49:53;;;;;;;8.43;3.47;;;;;;;-150.27;100.00;61272.81;5224918;28;20091;-77
2022/09/26 05:52:27;;;;;;;9.73;3.70;;;;;;;-150.27;100.00;61272.81;5227078;28;20029;-74
2022/09/26 05:54:58;;;;;;;7.38;3.20;;;;;;;-150.27;100.00;61272.81;5227575;28;20041;-75
2022/09/26 05:57:30;;;;;;;10.63;3.50;;;;;;;-150.27;100.00;61272.81;5226769;28;20037;-76
2022/09/26 06:00:03;;;;;;;9.00;3.90;;;;;;;-150.27;100.00;61272.81;5227543;28;20036;-74
2022/09/26 06:02:34;;;;;;;8.13;3.40;;;;;;;-150.27;100.00;61272.81;5226610;28;20033;-74
2022/09/26 06:05:05;;;;;;;10.13;3.40;;;;;;;-150.27;100.00;61272.81;5226590;28;20439;-77
2022/09/26 06:07:37;;;;;;;7.40;3.30;;;;;;;-150.27;100.00;61272.81;5227138;28;20060;-77
2022/09/26 06:10:08;;;;;;;10.70;3.50;;;;;;;-150.27;100.00;61272.81;5226797;28;20041;-76
2022/09/26 06:12:39;;;;;;;9.57;3.53;;;;;;;-150.27;100.00;61272.81;5226339;28;20025;-74
2022/09/26 06:15:11;;;;;;;8.60;3.43;;;;;;;-150.27;100.00;61272.81;5227613;28;20049;-76
2022/09/26 06:17:44;;;;;;;7.57;3.03;;;;;;;-150.27;100.00;61272.81;5227847;28;20550;-74
2022/09/26 06:20:16;;;;;;;9.03;3.57;;;;;;;-150.27;100.00;61272.81;5225982;28;20094;-75
2022/09/26 06:22:47;;;;;;;8.50;3.07;;;;;;;-150.27;100.00;61272.81;5226708;28;20055;-76
2022/09/26 06:25:18;;;;;;;13.37;3.60;;;;;;;-150.27;100.00;61272.81;5226533;28;20037;-80
2022/09/26 06:27:54;;;;;;;7.73;2.77;;;;;;;-150.27;100.00;61272.81;5227106;28;20021;-80
2022/09/26 06:30:26;;;;;;;5.83;2.63;;;;;;;-150.27;100.00;61272.81;5226872;28;20030;-80
2022/09/26 06:32:57;;;;;;;8.20;2.87;;;;;;;-150.27;100.00;61272.81;5226816;28;20550;-80
2022/09/26 06:35:29;;;;;;;7.00;2.97;;;;;;;-150.27;100.00;61272.81;5225736;28;20559;-72
2022/09/26 06:38:01;;;;;;;8.80;3.03;;;;;;;-150.27;100.00;61272.81;5226857;28;20706;-75
2022/09/26 06:40:33;;;;;;;7.73;2.47;;;;;;;-150.27;100.00;61272.81;5226693;28;20025;-74
2022/09/26 06:43:04;;;;;;;8.27;2.60;;;;;;;-150.27;100.00;61272.81;5223890;28;20099;-78
2022/09/26 06:45:35;;;;;;;12.53;2.60;;;;;;;-150.27;100.00;61272.81;5226185;28;20768;-82
2022/09/26 06:48:06;;;;;;;5.90;2.33;;;;;;;-150.27;100.00;61272.81;5222923;28;20143;-80
2022/09/26 06:50:38;;;;;;;7.67;2.40;;;;;;;-150.27;100.00;61272.81;5223231;28;20034;-79
2022/09/26 06:53:09;;;;;;;5.57;1.93;;;;;;;-150.27;100.00;61272.81;5224562;28;20033;-76
2022/09/26 06:55:40;;;;;;;7.63;1.80;;;;;;;-150.27;100.00;61272.81;5223249;28;20044;-77
2022/09/26 06:58:12;;;;;;;6.53;2.60;;;;;;;-150.27;100.00;61272.81;5224291;28;20045;-82
2022/09/26 07:00:43;;;;;;;5.70;2.00;;;;;;;-150.27;100.00;61272.81;5223831;28;20517;-82
2022/09/26 07:03:15;;;;;;;5.90;1.97;;;;;;;-150.27;100.00;61272.81;5223986;28;20042;-76
2022/09/26 07:05:46;;;;;;;6.43;2.40;;;;;;;-150.27;100.00;61272.81;5224597;28;20229;-75
2022/09/26 07:08:17;;;;;;;6.33;2.07;;;;;;;-150.27;100.00;61272.81;5225391;28;20030;-78
2022/09/26 07:10:49;;;;;;;5.33;2.10;;;;;;;-150.27;100.00;61272.81;5234885;28;20033;-79
2022/09/26 07:13:21;;;;;;;4.27;1.83;;;;;;;-150.27;100.00;61272.81;5235382;28;20201;-79
2022/09/26 07:15:56;;;;;;;4.50;1.83;;;;;;;-150.27;100.00;61272.81;5236144;28;20120;-81
2022/09/26 07:18:27;;;;;;;;;;;;;;;-150.27;100.00;61272.81;5235115;28;20036;-81
2022/09/26 07:21:02;;;;;;;7.33;2.00;;;;;;;-150.27;100.00;61272.81;5234494;28;19920;-80
2022/09/26 07:23:34;;;;;;;12.20;3.17;;;;;;;-150.27;100.00;61272.81;5234769;28;20472;-82
2022/09/26 07:26:05;;;;;;;4.97;1.80;;;;;;;-150.27;100.00;61272.81;5235656;28;20068;-80
2022/09/26 07:28:37;;;;;;;6.33;2.00;;;;;;;-150.27;100.00;61272.81;5235629;28;20384;-80
2022/09/26 07:31:08;;;;;;;8.33;1.73;;;;;;;-150.27;100.00;61272.81;5235227;28;20071;-79
2022/09/26 07:33:40;;;;;;;7.20;2.90;;;;;;;-150.27;100.00;61272.81;5235255;28;20494;-80
2022/09/26 07:36:11;;;;;;;5.90;1.97;;;;;;;-150.27;100.00;61272.81;5233820;28;20021;-80
2022/09/26 07:38:42;;;;;;;5.17;2.30;;;;;;;-150.27;100.00;61272.81;5234261;28;20040;-80
2022/09/26 07:41:14;;;;;;;4.80;1.67;;;;;;;-150.27;100.00;61272.81;5235146;28;20529;-81
2022/09/26 07:43:45;;;;;;;4.10;2.03;;;;;;;-150.27;100.00;61272.81;5231833;28;20023;-78
2022/09/26 07:51:59;;;;;;;7.17;2.23;;;;;;;-150.27;100.00;61272.81;5235078;28;20535;-81
2022/09/26 07:54:30;;;;;;;7.97;2.05;;;;;;;-150.27;100.00;61272.81;5234420;28;20030;-80
2022/09/26 07:57:03;;;;;;;4.23;1.87;;;;;;;-150.27;100.00;61272.81;5233908;28;20036;-81
2022/09/26 07:59:35;;;;;;;7.53;1.90;;;;;;;-150.27;100.00;61272.81;5233779;28;20422;-81
2022/09/26 08:02:20;;;;;;;4.77;1.60;;;;;;;-150.27;100.00;61272.81;5235134;28;20033;-79
2022/09/26 08:04:53;;;;;;;7.38;1.92;;;;;;;-150.27;100.00;61272.81;5233190;28;20040;-81
2022/09/26 08:07:24;;;;;;;6.83;2.00;;;;;;;-150.27;100.00;61272.81;5234586;28;20029;-80
2022/09/26 08:09:57;;;;;;;8.37;3.60;;;;;;;-150.27;100.00;61272.81;5235035;28;20037;-78
2022/09/26 08:12:37;;;;;;;6.60;1.80;;;;;;;-150.27;100.00;61272.81;5234759;28;20465;-80
2022/09/26 08:15:09;;;;;;;7.33;2.43;;;;;;;-150.27;100.00;61272.81;5234414;28;20129;-76
2022/09/26 08:17:41;;;;;;;9.70;2.60;;;;;;;-150.27;100.00;61272.81;5234205;28;20420;-81
2022/09/26 08:20:13;;;;;;;7.60;1.90;;;;;;;-150.27;100.00;61272.81;5233775;28;20075;-81
2022/09/26 08:22:44;;;;;;;4.30;1.90;;;;;;;-150.27;100.00;61272.81;5233322;28;20013;-81
2022/09/26 08:25:15;;;;;;;5.10;2.33;;;;;;;-150.27;100.00;61272.81;5234679;28;20025;-81
2022/09/26 08:27:49;;;;;;;7.97;2.70;;;;;;;-150.27;100.00;61272.81;5233478;28;20463;-78
2022/09/26 08:30:23;;;;;;;10.70;2.00;;;;;;;-150.27;100.00;61272.81;5234413;28;20030;-80
2022/09/26 08:32:59;;;;;;;;;;;;;;;-150.27;100.00;61272.81;5234980;28;20094;-81
2022/09/26 08:35:37;;;;;;;7.40;2.33;;;;;;;-150.27;100.00;61272.81;5237097;28;19912;-80
2022/09/26 08:38:08;;;;;;;6.47;2.00;;;;;;;-150.27;100.00;61272.81;5239708;28;20025;-80
2022/09/26 08:40:58;;;;;;;7.70;2.53;;;;;;;-150.27;100.00;61272.81;5240653;28;20336;-79
2022/09/26 08:43:44;;;;;;;9.40;2.60;;;;;;;-150.27;100.00;61272.81;5240912;28;20044;-79
2022/09/26 08:46:36;;;;;;;5.87;2.20;;;;;;;-150.27;100.00;61272.81;5240700;28;20028;-81
2022/09/26 08:49:29;;;;;;;12.03;3.30;;;;;;;-150.27;100.00;61272.81;5238820;28;20090;-81
2022/09/26 08:52:11;;;;;;;3.87;1.53;;;;;;;-150.27;100.00;61272.81;5240063;28;20536;-81
2022/09/26 08:54:45;;;;;;;6.83;2.23;;;;;;;-150.27;100.00;61272.81;5240584;28;20033;-81
2022/09/26 08:57:31;;;;;;;6.68;2.10;;;;;;;-150.27;100.00;61272.81;5241060;28;20025;-76
2022/09/26 09:00:08;;;;;;;6.87;2.53;;;;;;;-150.27;100.00;61272.81;5240804;28;20110;-80
2022/09/26 09:03:02;;;;;;;6.97;2.53;;;;;;;-150.27;100.00;61272.81;5240891;28;20048;-76
2022/09/26 09:05:40;;;;;;;7.23;2.00;;;;;;;-150.27;100.00;61272.81;5239351;28;20084;-81
2022/09/26 09:08:16;;;;;;;6.43;2.10;;;;;;;-150.27;100.00;61272.81;5237471;28;20033;-79
2022/09/26 09:11:16;;;;;;;9.60;2.33;;;;;;;-150.27;100.00;61272.81;5228726;28;20560;-81
2022/09/26 09:14:05;;;;;;;7.03;2.20;;;;;;;-150.27;100.00;61272.81;5219525;28;20046;-81
2022/09/26 09:16:39;;;;;;;10.00;2.70;;;;;;;-150.27;100.00;61272.81;5219581;28;20392;-79
2022/09/26 09:19:33;;;;;;;5.82;2.25;;;;;;;-150.27;100.00;61272.81;5219013;28;20033;-79
2022/09/26 09:22:40;;;;;;;5.83;2.03;;;;;;;-150.27;100.00;61272.81;5220222;28;20025;-76
2022/09/26 09:25:38;;;;;;;7.13;2.20;;;;;;;-150.27;100.00;61272.81;5220239;28;20484;-80
2022/09/26 09:28:25;;;;;;;8.43;2.40;;;;;;;-150.27;100.00;61272.81;5220544;28;20045;-79
2022/09/26 09:31:00;;;;;;;12.47;2.90;;;;;;;-150.27;100.00;61272.81;5235484;28;20041;-78
2022/09/26 09:33:46;;;;;;;7.13;2.60;;;;;;;-150.27;100.00;61272.81;5235971;28;20057;-80
2022/09/26 09:36:22;;;;;;;7.70;2.03;;;;;;;-150.27;100.00;61272.81;5239090;28;20021;-79
2022/09/26 09:39:01;;;;;;;8.17;2.23;;;;;;;-150.27;100.00;61272.81;5240496;28;20112;-80
2022/09/26 09:42:00;;;;;;;7.00;2.23;;;;;;;-150.27;100.00;61272.81;5240896;28;20033;-79
2022/09/26 09:44:47;;;;;;;9.27;2.57;;;;;;;-150.27;100.00;61272.81;5240305;28;20049;-78
2022/09/26 09:47:19;;;;;;;12.30;2.70;;;;;;;-150.27;100.00;61272.81;5234582;28;20038;-79
2022/09/26 09:49:50;;;;;;;8.33;2.60;;;;;;;-150.27;100.00;61272.81;5235209;28;20554;-79
2022/09/26 09:52:31;;;;;;;6.73;2.60;;;;;;;-150.27;100.00;61272.81;5235649;28;20025;-79
2022/09/26 09:55:29;;;;;;;12.13;3.80;;;;;;;-150.27;100.00;61272.81;5236790;28;20021;-81
2022/09/26 09:58:29;;;;;;;8.87;3.10;;;;;;;-150.27;100.00;61272.81;5237149;28;20432;-77
2022/09/26 10:01:24;;;;;;;8.43;2.70;;;;;;;-150.27;100.00;61272.81;5237321;28;20032;-80
2022/09/26 10:03:55;;;;;;;;;;;;;;;-150.27;100.00;61272.81;5235847;28;20071;-79
2022/09/26 10:06:27;;;;;;;7.77;2.57;;;;;;;-150.27;100.00;61272.81;5236414;28;19913;-79
2022/09/26 10:09:11;;;;;;;11.70;3.07;;;;;;;-150.27;100.00;61272.81;5225158;28;20034;-80
2022/09/26 10:11:43;;;;;;;7.55;2.47;;;;;;;-150.27;100.00;61272.81;5216555;28;20034;-79
2022/09/26 10:14:27;;;;;;;8.27;2.97;;;;;;;-150.27;100.00;61272.81;5216333;28;20077;-79
2022/09/26 10:17:07;;;;;;;8.38;3.20;;;;;;;-150.27;100.00;61272.81;5214959;28;20022;-79
2022/09/26 10:19:42;;;;;;;9.00;3.30;;;;;;;-150.27;100.00;61272.81;5214900;28;20493;-78
2022/09/26 10:22:36;;;;;;;4.25;2.47;;;;;;;-150.27;100.00;61272.81;5216496;28;20037;-78
2022/09/26 10:25:16;;;;;;;5.43;2.03;;;;;;;-150.27;100.00;61272.81;5223624;28;20025;-78
2022/09/26 10:27:51;;;;;;;13.03;3.10;;;;;;;-150.27;100.00;61272.81;5234430;28;20021;-79
2022/09/26 10:30:31;;;;;;;8.07;2.40;;;;;;;-150.27;100.00;61272.81;5235974;28;20049;-82
2022/09/26 10:33:03;;;;;;;9.87;2.90;;;;;;;-150.27;100.00;61272.81;5233760;28;20029;-80
2022/09/26 10:35:42;;;;;;;5.60;2.33;;;;;;;-150.27;100.00;61272.81;5234334;28;20028;-79
2022/09/26 10:38:18;;;;;;;6.63;2.87;;;;;;;-150.27;100.00;61272.81;5236323;28;20033;-76
2022/09/26 10:40:58;;;;;;;9.30;2.77;;;;;;;-150.27;100.00;61272.81;5235057;28;20029;-72
2022/09/26 10:43:36;;;;;;;4.97;2.20;;;;;;;-150.27;100.00;61272.81;5233751;28;20026;-76
2022/09/26 10:46:12;;;;;;;8.03;2.83;;;;;;;-150.27;100.00;61272.81;5236001;28;20040;-72
2022/09/26 10:48:50;;;;;;;10.17;2.57;;;;;;;-150.27;100.00;61272.81;5236281;28;20108;-79
2022/09/26 10:51:36;;;;;;;7.77;3.00;;;;;;;-150.27;100.00;61272.81;5235136;28;20029;-76
2022/09/26 10:54:17;;;;;;;9.30;3.00;;;;;;;-150.27;100.00;61272.81;5236295;28;20100;-74
2022/09/26 10:56:57;;;;;;;6.17;2.70;;;;;;;-150.27;100.00;61272.81;5235674;28;20029;-83
2022/09/26 10:59:35;;;;;;;9.43;3.10;;;;;;;-150.27;100.00;61272.81;5232364;28;20048;-73
2022/09/26 11:02:18;;;;;;;9.30;3.27;;;;;;;-150.27;100.00;61272.81;5236200;28;20480;-70
2022/09/26 11:07:48;;;;;;;6.30;3.10;;;;;;;-150.27;100.00;61272.81;5221225;28;20041;-70
2022/09/26 11:10:26;;;;;;;8.27;3.10;;;;;;;-150.27;100.00;61272.81;5235030;28;20033;-77
2022/09/26 11:13:14;;;;;;;9.17;3.53;;;;;;;-150.27;100.00;61272.81;5236071;28;20506;-72
2022/09/26 11:16:07;;;;;;;5.87;3.10;;;;;;;-150.27;100.00;61272.81;5233835;28;20035;-70
2022/09/26 11:18:50;;;;;;;5.07;2.73;;;;;;;-150.27;100.00;61272.81;5234035;28;20495;-69
2022/09/26 11:21:37;;;;;;;7.80;2.57;;;;;;;-150.27;100.00;61272.81;5232231;28;20021;-70
2022/09/26 11:24:36;;;;;;;7.50;2.63;;;;;;;-150.27;100.00;61272.81;5230862;28;20029;-70
2022/09/26 11:28:04;;;;;;;6.47;2.40;;;;;;;-150.27;100.00;61272.81;5233610;28;20435;-70
2022/09/26 11:30:41;;;;;;;4.97;2.73;;;;;;;-150.27;100.00;61272.81;5185831;28;20063;-70
2022/09/26 11:33:17;;;;;;;6.50;2.57;;;;;;;-150.27;100.00;61272.81;5230093;28;20038;-70
2022/09/26 11:36:04;;;;;;;5.97;3.27;;;;;;;-150.27;100.00;61272.81;5232757;28;20044;-70
2022/09/26 11:39:01;;;;;;;7.10;2.13;;;;;;;-150.27;100.00;61272.81;5234538;28;20021;-70
2022/09/26 11:41:47;;;;;;;7.97;2.67;;;;;;;-150.27;100.00;61272.81;5234873;28;20029;-75
2022/09/26 11:44:50;;;;;;;2.80;2.20;;;;;;;-150.27;100.00;61272.81;5233446;28;20112;-76
2022/09/26 11:47:59;;;;;;;10.63;2.87;;;;;;;-150.27;100.00;61272.81;5228460;28;20037;-75
2022/09/26 11:51:11;;;;;;;5.23;2.70;;;;;;;-150.27;100.00;61272.81;5225569;28;20037;-75
2022/09/26 11:53:54;;;;;;;5.23;2.00;;;;;;;-150.27;100.00;61272.81;5230566;28;20520;-76
2022/09/26 11:56:41;;;;;;;5.07;2.30;;;;;;;-150.27;100.00;61272.81;5230605;28;20026;-75
2022/09/26 11:59:26;;;;;;;4.50;2.30;;;;;;;-150.27;100.00;61272.81;5235390;28;20083;-75
2022/09/26 12:02:32;;;;;;;6.70;2.63;;;;;;;-150.27;100.00;61272.81;5231290;28;20033;-75
2022/09/26 12:05:23;;;;;;;4.30;2.30;;;;;;;-150.27;100.00;61272.81;5229573;28;20036;-75
2022/09/26 12:08:24;;;;;;;5.40;2.33;;;;;;;-150.27;100.00;61272.81;5227409;28;20661;-75
2022/09/26 12:11:18;;;;;;;2.60;1.90;;;;;;;-150.27;100.00;61272.81;5232015;28;20026;-75